sensor_id;sensor_type;location;lat;lon;timestamp;pressure;altitude;pressure_sealevel;temperature;humidity
19023;BME280;35226;48.606;8.858;2022-09-29T00:01:52;94788.47;;;9.48;100.00
19023;BME280;35226;48.606;8.858;2022-09-29T00:04:17;94793.97;;;9.48;100.00
19023;BME280;35226;48.606;8.858;2022-09-29T00:06:44;94786.81;;;9.42;100.00
19023;BME280;35226;48.606;8.858;2022-09-29T00:09:09;94784.66;;;9.46;100.00
19023;BME280;35226;48.606;8.858;2022-09-29T00:11:35;94779.44;;;9.48;100.00
19023;BME280;35226;48.606;8.858;2022-09-29T00:14:00;94778.97;;;9.49;100.00
19023;BME280;35226;48.606;8.858;2022-09-29T00:16:26;94778.47;;;9.51;100.00
19023;BME280;35226;48.606;8.858;2022-09-29T00:18:55;94782.47;;;9.50;100.00
19023;BME280;35226;48.606;8.858;2022-09-29T00:21:21;94777.53;;;9.54;100.00
19023;BME280;35226;48.606;8.858;2022-09-29T00:23:48;94775.06;;;9.56;100.00
19023;BME280;35226;48.606;8.858;2022-09-29T00:26:19;94774.69;;;9.63;100.00
19023;BME280;35226;48.606;8.858;2022-09-29T00:28:48;94781.34;;;9.56;100.00
19023;BME280;35226;48.606;8.858;2022-09-29T00:31:17;94773.16;;;9.62;100.00
19023;BME280;35226;48.606;8.858;2022-09-29T00:33:43;94772.69;;;9.63;100.00
19023;BME280;35226;48.606;8.858;2022-09-29T00:36:11;94781.53;;;9.68;100.00
19023;BME280;35226;48.606;8.858;2022-09-29T00:38:37;94782.19;;;9.62;100.00
19023;BME280;35226;48.606;8.858;2022-09-29T00:41:03;94777.91;;;9.61;100.00
19023;BME280;35226;48.606;8.858;2022-09-29T00:46:21;94770.97;;;9.66;100.00
19023;BME280;35226;48.606;8.858;2022-09-29T00:48:49;94769.75;;;9.67;100.00
19023;BME280;35226;48.606;8.858;2022-09-29T00:51:16;94762.03;;;9.71;100.00
19023;BME280;35226;48.606;8.858;2022-09-29T00:53:43;94761.84;;;9.75;100.00
19023;BME280;35226;48.606;8.858;2022-09-29T00:56:12;94759.38;;;9.77;100.00
19023;BME280;35226;48.606;8.858;2022-09-29T00:59:00;94761.94;;;9.80;100.00
19023;BME280;35226;48.606;8.858;2022-09-29T01:01:30;94752.06;;;9.88;100.00
19023;BME280;35226;48.606;8.858;2022-09-29T01:03:59;94751.97;;;9.83;100.00
19023;BME280;35226;48.606;8.858;2022-09-29T01:06:32;94760.91;;;9.78;100.00
19023;BME280;35226;48.606;8.858;2022-09-29T01:09:11;94760.22;;;9.83;100.00
19023;BME280;35226;48.606;8.858;2022-09-29T01:11:38;94754.72;;;9.83;100.00
19023;BME280;35226;48.606;8.858;2022-09-29T01:14:06;94748.44;;;9.82;100.00
19023;BME280;35226;48.606;8.858;2022-09-29T01:16:34;94744.25;;;9.87;100.00
19023;BME280;35226;48.606;8.858;2022-09-29T01:19:05;94746.72;;;9.85;100.00
19023;BME280;35226;48.606;8.858;2022-09-29T01:36:20;94756.25;;;9.98;100.00
19023;BME280;35226;48.606;8.858;2022-09-29T01:39:01;94754.97;;;9.99;100.00
19023;BME280;35226;48.606;8.858;2022-09-29T01:46:55;94758.25;;;9.98;100.00
19023;BME280;35226;48.606;8.858;2022-09-29T01:49:25;94753.50;;;9.98;100.00
19023;BME280;35226;48.606;8.858;2022-09-29T01:54:31;94755.97;;;9.96;100.00
19023;BME280;35226;48.606;8.858;2022-09-29T01:59:53;94764.97;;;10.12;100.00
19023;BME280;35226;48.606;8.858;2022-09-29T02:02:33;94762.31;;;10.02;100.00
19023;BME280;35226;48.606;8.858;2022-09-29T02:05:05;94762.72;;;9.95;100.00
19023;BME280;35226;48.606;8.858;2022-09-29T02:07:37;94758.31;;;10.03;100.00
19023;BME280;35226;48.606;8.858;2022-09-29T02:10:11;94758.78;;;10.02;100.00
19023;BME280;35226;48.606;8.858;2022-09-29T02:12:39;94759.56;;;10.02;100.00
19023;BME280;35226;48.606;8.858;2022-09-29T02:15:08;94759.00;;;9.98;100.00
19023;BME280;35226;48.606;8.858;2022-09-29T02:17:40;94758.72;;;9.96;100.00
19023;BME280;35226;48.606;8.858;2022-09-29T02:20:10;94761.47;;;9.96;100.00
19023;BME280;35226;48.606;8.858;2022-09-29T02:22:36;94760.53;;;9.85;100.00
19023;BME280;35226;48.606;8.858;2022-09-29T02:25:03;94761.09;;;9.89;100.00
19023;BME280;35226;48.606;8.858;2022-09-29T02:27:30;94759.19;;;9.95;100.00
19023;BME280;35226;48.606;8.858;2022-09-29T02:29:58;94767.16;;;9.93;100.00
19023;BME280;35226;48.606;8.858;2022-09-29T02:32:24;94761.00;;;9.83;100.00
19023;BME280;35226;48.606;8.858;2022-09-29T02:34:51;94766.81;;;9.85;100.00
19023;BME280;35226;48.606;8.858;2022-09-29T02:51:25;94745.56;;;10.06;100.00
19023;BME280;35226;48.606;8.858;2022-09-29T02:54:00;94744.13;;;10.11;100.00
19023;BME280;35226;48.606;8.858;2022-09-29T03:00:09;94745.94;;;10.14;100.00
19023;BME280;35226;48.606;8.858;2022-09-29T03:02:40;94738.34;;;10.09;100.00
19023;BME280;35226;48.606;8.858;2022-09-29T03:05:08;94741.94;;;10.00;100.00
19023;BME280;35226;48.606;8.858;2022-09-29T03:07:38;94738.06;;;10.07;100.00
19023;BME280;35226;48.606;8.858;2022-09-29T03:10:05;94727.31;;;10.09;100.00
19023;BME280;35226;48.606;8.858;2022-09-29T03:12:32;94726.63;;;9.99;100.00
19023;BME280;35226;48.606;8.858;2022-09-29T03:14:57;94731.69;;;10.00;100.00
19023;BME280;35226;48.606;8.858;2022-09-29T03:17:23;94728.91;;;10.00;100.00
19023;BME280;35226;48.606;8.858;2022-09-29T03:19:48;94721.69;;;10.03;100.00
19023;BME280;35226;48.606;8.858;2022-09-29T03:22:14;94723.16;;;9.98;100.00
19023;BME280;35226;48.606;8.858;2022-09-29T03:24:39;94713.34;;;9.97;100.00
19023;BME280;35226;48.606;8.858;2022-09-29T03:27:07;94716.28;;;9.94;100.00
19023;BME280;35226;48.606;8.858;2022-09-29T03:29:34;94712.88;;;9.84;100.00
19023;BME280;35226;48.606;8.858;2022-09-29T03:32:02;94715.44;;;9.88;100.00
19023;BME280;35226;48.606;8.858;2022-09-29T03:34:28;94716.97;;;9.89;100.00
19023;BME280;35226;48.606;8.858;2022-09-29T03:36:54;94712.41;;;9.86;100.00
19023;BME280;35226;48.606;8.858;2022-09-29T03:39:22;94716.69;;;9.87;100.00
19023;BME280;35226;48.606;8.858;2022-09-29T03:41:48;94715.81;;;9.81;100.00
19023;BME280;35226;48.606;8.858;2022-09-29T03:44:14;94716.09;;;9.83;100.00
19023;BME280;35226;48.606;8.858;2022-09-29T03:46:40;94712.03;;;9.78;100.00
19023;BME280;35226;48.606;8.858;2022-09-29T03:49:09;94702.59;;;9.70;100.00
19023;BME280;35226;48.606;8.858;2022-09-29T03:51:35;94710.78;;;9.64;100.00
19023;BME280;35226;48.606;8.858;2022-09-29T03:54:00;94713.16;;;9.57;100.00
19023;BME280;35226;48.606;8.858;2022-09-29T03:56:26;94720.19;;;9.43;100.00
19023;BME280;35226;48.606;8.858;2022-09-29T03:58:51;94724.25;;;9.33;100.00
19023;BME280;35226;48.606;8.858;2022-09-29T04:01:17;94721.97;;;9.32;100.00
19023;BME280;35226;48.606;8.858;2022-09-29T04:03:42;94721.72;;;9.30;100.00
19023;BME280;35226;48.606;8.858;2022-09-29T04:06:08;94714.22;;;9.30;100.00
19023;BME280;35226;48.606;8.858;2022-09-29T04:08:37;94714.38;;;9.41;100.00
19023;BME280;35226;48.606;8.858;2022-09-29T04:11:03;94722.38;;;9.39;100.00
19023;BME280;35226;48.606;8.858;2022-09-29T04:13:29;94722.66;;;9.41;100.00
19023;BME280;35226;48.606;8.858;2022-09-29T04:16:00;94713.56;;;9.50;100.00
19023;BME280;35226;48.606;8.858;2022-09-29T04:18:26;94722.19;;;9.43;100.00
19023;BME280;35226;48.606;8.858;2022-09-29T04:20:54;94727.31;;;9.35;100.00
19023;BME280;35226;48.606;8.858;2022-09-29T04:23:21;94727.13;;;9.39;100.00
19023;BME280;35226;48.606;8.858;2022-09-29T04:25:48;94722.38;;;9.39;100.00
19023;BME280;35226;48.606;8.858;2022-09-29T04:28:13;94723.31;;;9.36;100.00
19023;BME280;35226;48.606;8.858;2022-09-29T04:30:39;94734.91;;;9.25;100.00
19023;BME280;35226;48.606;8.858;2022-09-29T04:33:05;94734.59;;;9.23;100.00
19023;BME280;35226;48.606;8.858;2022-09-29T04:35:30;94728.00;;;9.30;100.00
19023;BME280;35226;48.606;8.858;2022-09-29T04:37:56;94726.53;;;9.20;100.00
19023;BME280;35226;48.606;8.858;2022-09-29T04:40:23;94729.94;;;9.15;100.00
19023;BME280;35226;48.606;8.858;2022-09-29T04:42:49;94731.69;;;9.27;100.00
19023;BME280;35226;48.606;8.858;2022-09-29T04:45:15;94732.63;;;9.24;100.00
19023;BME280;35226;48.606;8.858;2022-09-29T04:47:40;94733.50;;;9.30;100.00
19023;BME280;35226;48.606;8.858;2022-09-29T04:50:06;94735.38;;;9.24;100.00
19023;BME280;35226;48.606;8.858;2022-09-29T04:52:34;94736.50;;;9.17;100.00
19023;BME280;35226;48.606;8.858;2022-09-29T04:55:01;94738.03;;;9.18;100.00
19023;BME280;35226;48.606;8.858;2022-09-29T04:57:27;94738.66;;;9.13;100.00
19023;BME280;35226;48.606;8.858;2022-09-29T04:59:53;94740.88;;;9.09;100.00
19023;BME280;35226;48.606;8.858;2022-09-29T05:02:18;94737.91;;;9.13;100.00
19023;BME280;35226;48.606;8.858;2022-09-29T05:04:45;94735.34;;;9.09;100.00
19023;BME280;35226;48.606;8.858;2022-09-29T05:07:13;94737.28;;;8.94;100.00
19023;BME280;35226;48.606;8.858;2022-09-29T05:09:38;94738.06;;;8.95;100.00
19023;BME280;35226;48.606;8.858;2022-09-29T05:12:04;94737.88;;;8.98;100.00
19023;BME280;35226;48.606;8.858;2022-09-29T05:14:30;94727.44;;;9.02;100.00
19023;BME280;35226;48.606;8.858;2022-09-29T05:16:56;94728.88;;;8.98;100.00
19023;BME280;35226;48.606;8.858;2022-09-29T05:19:22;94724.75;;;8.93;100.00
19023;BME280;35226;48.606;8.858;2022-09-29T05:21:47;94735.31;;;8.95;100.00
19023;BME280;35226;48.606;8.858;2022-09-29T05:24:13;94733.91;;;8.99;100.00
19023;BME280;35226;48.606;8.858;2022-09-29T05:26:39;94739.41;;;8.99;100.00
19023;BME280;35226;48.606;8.858;2022-09-29T05:29:04;94740.19;;;9.00;100.00
19023;BME280;35226;48.606;8.858;2022-09-29T05:31:30;94745.19;;;9.01;100.00
19023;BME280;35226;48.606;8.858;2022-09-29T05:33:55;94749.47;;;9.02;100.00
19023;BME280;35226;48.606;8.858;2022-09-29T05:36:22;94751.19;;;9.00;100.00
19023;BME280;35226;48.606;8.858;2022-09-29T05:38:47;94757.09;;;9.07;100.00
19023;BME280;35226;48.606;8.858;2022-09-29T05:41:14;94763.53;;;9.04;100.00
19023;BME280;35226;48.606;8.858;2022-09-29T05:43:46;94759.16;;;8.98;100.00
19023;BME280;35226;48.606;8.858;2022-09-29T05:46:12;94761.63;;;8.96;100.00
19023;BME280;35226;48.606;8.858;2022-09-29T05:48:37;94754.22;;;9.02;100.00
19023;BME280;35226;48.606;8.858;2022-09-29T05:51:09;94753.19;;;8.99;100.00
19023;BME280;35226;48.606;8.858;2022-09-29T05:53:35;94755.94;;;8.99;100.00
19023;BME280;35226;48.606;8.858;2022-09-29T05:56:08;94754.72;;;9.00;100.00
19023;BME280;35226;48.606;8.858;2022-09-29T05:58:35;94749.00;;;9.04;100.00
19023;BME280;35226;48.606;8.858;2022-09-29T06:01:08;94753.13;;;9.08;100.00
19023;BME280;35226;48.606;8.858;2022-09-29T06:03:35;94765.47;;;9.13;100.00
19023;BME280;35226;48.606;8.858;2022-09-29T06:06:08;94767.00;;;9.14;100.00
19023;BME280;35226;48.606;8.858;2022-09-29T06:08:36;94771.16;;;9.09;100.00
19023;BME280;35226;48.606;8.858;2022-09-29T06:11:10;94771.41;;;9.20;100.00
19023;BME280;35226;48.606;8.858;2022-09-29T06:13:38;94770.06;;;9.31;100.00
19023;BME280;35226;48.606;8.858;2022-09-29T06:16:04;94771.25;;;9.39;100.00
19023;BME280;35226;48.606;8.858;2022-09-29T06:18:30;94777.59;;;9.30;100.00
19023;BME280;35226;48.606;8.858;2022-09-29T06:21:20;94776.41;;;9.22;100.00
19023;BME280;35226;48.606;8.858;2022-09-29T06:23:46;94783.72;;;9.10;100.00
19023;BME280;35226;48.606;8.858;2022-09-29T06:26:14;94782.72;;;9.37;100.00
19023;BME280;35226;48.606;8.858;2022-09-29T06:28:40;94781.13;;;9.45;100.00
19023;BME280;35226;48.606;8.858;2022-09-29T06:31:18;94787.56;;;9.42;100.00
19023;BME280;35226;48.606;8.858;2022-09-29T06:33:44;94785.03;;;9.39;100.00
19023;BME280;35226;48.606;8.858;2022-09-29T06:36:15;94792.31;;;9.42;100.00
19023;BME280;35226;48.606;8.858;2022-09-29T06:39:00;94787.22;;;9.49;100.00
19023;BME280;35226;48.606;8.858;2022-09-29T06:41:26;94790.91;;;9.46;100.00
19023;BME280;35226;48.606;8.858;2022-09-29T06:43:53;94788.09;;;9.55;100.00
19023;BME280;35226;48.606;8.858;2022-09-29T06:46:18;94789.41;;;9.60;100.00
19023;BME280;35226;48.606;8.858;2022-09-29T06:48:44;94787.41;;;9.60;100.00
19023;BME280;35226;48.606;8.858;2022-09-29T06:51:10;94786.84;;;9.71;100.00
19023;BME280;35226;48.606;8.858;2022-09-29T06:53:36;94789.06;;;9.67;100.00
19023;BME280;35226;48.606;8.858;2022-09-29T06:56:02;94792.28;;;9.80;100.00
19023;BME280;35226;48.606;8.858;2022-09-29T06:58:28;94789.81;;;9.82;100.00
19023;BME280;35226;48.606;8.858;2022-09-29T07:00:54;94786.97;;;9.77;100.00
19023;BME280;35226;48.606;8.858;2022-09-29T07:03:20;94786.09;;;9.85;100.00
19023;BME280;35226;48.606;8.858;2022-09-29T07:05:46;94784.75;;;9.81;100.00
19023;BME280;35226;48.606;8.858;2022-09-29T07:08:12;94781.53;;;9.68;100.00
19023;BME280;35226;48.606;8.858;2022-09-29T07:10:38;94789.22;;;9.63;100.00
19023;BME280;35226;48.606;8.858;2022-09-29T07:13:06;94795.25;;;9.77;100.00
19023;BME280;35226;48.606;8.858;2022-09-29T07:15:34;94792.47;;;9.77;100.00
19023;BME280;35226;48.606;8.858;2022-09-29T07:18:00;94792.56;;;9.82;100.00
19023;BME280;35226;48.606;8.858;2022-09-29T07:20:27;94796.66;;;9.87;100.00
19023;BME280;35226;48.606;8.858;2022-09-29T07:22:54;94798.66;;;9.86;100.00
19023;BME280;35226;48.606;8.858;2022-09-29T07:25:20;94797.22;;;9.91;100.00
19023;BME280;35226;48.606;8.858;2022-09-29T07:27:47;94793.53;;;9.94;100.00
19023;BME280;35226;48.606;8.858;2022-09-29T07:30:13;94795.69;;;9.90;100.00
19023;BME280;35226;48.606;8.858;2022-09-29T07:32:39;94800.19;;;10.02;100.00
19023;BME280;35226;48.606;8.858;2022-09-29T07:35:05;94795.72;;;10.05;100.00
19023;BME280;35226;48.606;8.858;2022-09-29T07:37:31;94803.31;;;10.10;100.00
19023;BME280;35226;48.606;8.858;2022-09-29T07:39:57;94799.31;;;10.11;100.00
19023;BME280;35226;48.606;8.858;2022-09-29T07:42:22;94807.06;;;10.21;100.00
19023;BME280;35226;48.606;8.858;2022-09-29T07:44:54;94810.38;;;10.25;100.00
19023;BME280;35226;48.606;8.858;2022-09-29T07:47:20;94811.13;;;10.11;100.00
19023;BME280;35226;48.606;8.858;2022-09-29T07:49:46;94808.28;;;10.35;100.00
19023;BME280;35226;48.606;8.858;2022-09-29T07:52:12;94810.66;;;10.42;100.00
19023;BME280;35226;48.606;8.858;2022-09-29T07:54:38;94808.28;;;10.35;100.00
19023;BME280;35226;48.606;8.858;2022-09-29T07:57:03;94804.06;;;10.39;100.00
19023;BME280;35226;48.606;8.858;2022-09-29T07:59:29;94812.47;;;10.45;100.00
19023;BME280;35226;48.606;8.858;2022-09-29T08:01:55;94808.94;;;10.45;100.00
19023;BME280;35226;48.606;8.858;2022-09-29T08:04:21;94803.13;;;10.43;100.00
19023;BME280;35226;48.606;8.858;2022-09-29T08:06:47;94807.47;;;10.49;100.00
19023;BME280;35226;48.606;8.858;2022-09-29T08:09:13;94814.94;;;10.43;100.00
19023;BME280;35226;48.606;8.858;2022-09-29T08:11:41;94810.25;;;10.49;100.00
19023;BME280;35226;48.606;8.858;2022-09-29T08:14:08;94806.91;;;10.60;100.00
19023;BME280;35226;48.606;8.858;2022-09-29T08:16:37;94816.63;;;10.55;100.00
19023;BME280;35226;48.606;8.858;2022-09-29T08:19:04;94826.50;;;10.62;100.00
19023;BME280;35226;48.606;8.858;2022-09-29T08:21:32;94818.41;;;10.73;100.00
19023;BME280;35226;48.606;8.858;2022-09-29T08:24:03;94820.88;;;10.71;100.00
19023;BME280;35226;48.606;8.858;2022-09-29T08:26:32;94819.44;;;10.75;100.00
19023;BME280;35226;48.606;8.858;2022-09-29T08:29:03;94825.75;;;10.96;100.00
19023;BME280;35226;48.606;8.858;2022-09-29T08:31:29;94833.78;;;10.94;100.00
19023;BME280;35226;48.606;8.858;2022-09-29T08:33:56;94836.59;;;11.00;100.00
19023;BME280;35226;48.606;8.858;2022-09-29T08:36:23;94832.13;;;11.02;100.00
19023;BME280;35226;48.606;8.858;2022-09-29T08:38:51;94842.97;;;11.06;100.00
19023;BME280;35226;48.606;8.858;2022-09-29T08:41:31;94842.97;;;11.06;100.00
19023;BME280;35226;48.606;8.858;2022-09-29T08:44:09;94838.00;;;11.10;100.00
19023;BME280;35226;48.606;8.858;2022-09-29T08:46:43;94847.34;;;11.12;100.00
19023;BME280;35226;48.606;8.858;2022-09-29T08:49:23;94840.97;;;11.27;100.00
19023;BME280;35226;48.606;8.858;2022-09-29T08:51:55;94839.81;;;11.33;100.00
19023;BME280;35226;48.606;8.858;2022-09-29T08:54:41;94842.44;;;11.42;100.00
19023;BME280;35226;48.606;8.858;2022-09-29T08:57:12;94840.63;;;11.39;100.00
19023;BME280;35226;48.606;8.858;2022-09-29T08:59:57;94853.56;;;11.48;100.00
19023;BME280;35226;48.606;8.858;2022-09-29T09:08:00;94855.84;;;11.70;100.00
19023;BME280;35226;48.606;8.858;2022-09-29T09:10:45;94851.63;;;11.74;100.00
19023;BME280;35226;48.606;8.858;2022-09-29T09:13:32;94859.72;;;11.78;100.00
19023;BME280;35226;48.606;8.858;2022-09-29T09:16:19;94871.28;;;11.76;100.00
19023;BME280;35226;48.606;8.858;2022-09-29T09:18:54;94875.84;;;11.79;100.00
19023;BME280;35226;48.606;8.858;2022-09-29T09:21:41;94873.41;;;11.87;100.00
19023;BME280;35226;48.606;8.858;2022-09-29T09:24:27;94877.00;;;11.93;100.00
19023;BME280;35226;48.606;8.858;2022-09-29T09:26:58;94867.88;;;11.87;100.00
19023;BME280;35226;48.606;8.858;2022-09-29T09:29:34;94875.44;;;12.12;100.00
19023;BME280;35226;48.606;8.858;2022-09-29T09:32:21;94873.09;;;12.05;100.00
19023;BME280;35226;48.606;8.858;2022-09-29T09:34:54;94877.72;;;12.14;100.00
19023;BME280;35226;48.606;8.858;2022-09-29T09:37:42;94870.88;;;12.35;100.00
19023;BME280;35226;48.606;8.858;2022-09-29T09:40:36;94872.44;;;12.16;100.00
19023;BME280;35226;48.606;8.858;2022-09-29T09:43:09;94869.84;;;12.07;100.00
19023;BME280;35226;48.606;8.858;2022-09-29T09:45:44;94867.63;;;12.11;100.00
19023;BME280;35226;48.606;8.858;2022-09-29T09:48:18;94864.38;;;12.12;100.00
19023;BME280;35226;48.606;8.858;2022-09-29T09:50:46;94867.47;;;12.20;100.00
19023;BME280;35226;48.606;8.858;2022-09-29T09:53:18;94867.78;;;12.28;100.00
19023;BME280;35226;48.606;8.858;2022-09-29T09:55:57;94870.81;;;12.30;100.00
19023;BME280;35226;48.606;8.858;2022-09-29T09:58:44;94863.38;;;12.41;100.00
19023;BME280;35226;48.606;8.858;2022-09-29T10:01:17;94862.13;;;12.42;100.00
19023;BME280;35226;48.606;8.858;2022-09-29T10:03:42;94861.50;;;12.58;100.00
19023;BME280;35226;48.606;8.858;2022-09-29T10:06:08;94865.59;;;12.63;100.00
19023;BME280;35226;48.606;8.858;2022-09-29T10:08:39;94867.63;;;12.68;100.00
19023;BME280;35226;48.606;8.858;2022-09-29T10:11:27;94866.38;;;12.69;100.00
19023;BME280;35226;48.606;8.858;2022-09-29T10:14:23;94875.63;;;12.92;100.00
19023;BME280;35226;48.606;8.858;2022-09-29T10:17:02;94871.16;;;13.00;100.00
19023;BME280;35226;48.606;8.858;2022-09-29T10:19:59;94871.41;;;13.02;100.00
19023;BME280;35226;48.606;8.858;2022-09-29T10:22:26;94861.06;;;13.03;100.00
19023;BME280;35226;48.606;8.858;2022-09-29T10:25:05;94868.88;;;12.98;100.00
19023;BME280;35226;48.606;8.858;2022-09-29T10:27:33;94868.13;;;13.04;100.00
19023;BME280;35226;48.606;8.858;2022-09-29T10:30:00;94867.38;;;13.03;100.00
19023;BME280;35226;48.606;8.858;2022-09-29T10:32:31;94874.75;;;13.12;100.00
19023;BME280;35226;48.606;8.858;2022-09-29T10:37:52;94874.97;;;13.08;100.00
19023;BME280;35226;48.606;8.858;2022-09-29T10:40:24;94878.03;;;13.10;100.00
19023;BME280;35226;48.606;8.858;2022-09-29T10:42:50;94880.91;;;13.21;100.00
19023;BME280;35226;48.606;8.858;2022-09-29T10:45:28;94869.34;;;13.34;100.00
19023;BME280;35226;48.606;8.858;2022-09-29T10:50:27;94867.78;;;13.22;100.00
19023;BME280;35226;48.606;8.858;2022-09-29T10:52:55;94874.59;;;13.26;100.00
19023;BME280;35226;48.606;8.858;2022-09-29T10:55:25;94867.06;;;13.32;100.00
19023;BME280;35226;48.606;8.858;2022-09-29T10:57:54;94870.03;;;13.18;100.00
19023;BME280;35226;48.606;8.858;2022-09-29T11:00:34;94872.88;;;13.29;100.00
19023;BME280;35226;48.606;8.858;2022-09-29T11:03:20;94872.47;;;13.53;100.00
19023;BME280;35226;48.606;8.858;2022-09-29T11:06:12;94875.03;;;13.62;100.00
19023;BME280;35226;48.606;8.858;2022-09-29T11:11:30;94887.63;;;13.57;100.00
19023;BME280;35226;48.606;8.858;2022-09-29T11:13:57;94881.66;;;13.70;100.00
19023;BME280;35226;48.606;8.858;2022-09-29T11:16:30;94884.97;;;13.80;100.00
19023;BME280;35226;48.606;8.858;2022-09-29T11:19:14;94879.66;;;13.76;100.00
19023;BME280;35226;48.606;8.858;2022-09-29T11:35:39;94883.75;;;13.97;100.00
19023;BME280;35226;48.606;8.858;2022-09-29T11:43:59;94887.84;;;14.13;100.00
19023;BME280;35226;48.606;8.858;2022-09-29T11:46:56;94890.63;;;14.07;100.00
19023;BME280;35226;48.606;8.858;2022-09-29T11:49:48;94890.13;;;14.09;100.00
19023;BME280;35226;48.606;8.858;2022-09-29T11:56:06;94888.09;;;14.10;100.00
19023;BME280;35226;48.606;8.858;2022-09-29T12:06:35;94877.25;;;14.23;100.00
19023;BME280;35226;48.606;8.858;2022-09-29T12:11:39;94877.78;;;14.27;100.00
19023;BME280;35226;48.606;8.858;2022-09-29T12:17:07;94881.56;;;14.24;100.00
19023;BME280;35226;48.606;8.858;2022-09-29T12:19:37;94878.28;;;14.25;100.00
19023;BME280;35226;48.606;8.858;2022-09-29T12:22:08;94883.59;;;14.29;100.00
19023;BME280;35226;48.606;8.858;2022-09-29T12:24:50;94878.28;;;14.25;100.00
19023;BME280;35226;48.606;8.858;2022-09-29T12:27:19;94874.25;;;14.26;100.00
19023;BME280;35226;48.606;8.858;2022-09-29T12:29:54;94877.25;;;14.23;100.00
19023;BME280;35226;48.606;8.858;2022-09-29T12:34:57;94877.59;;;14.47;100.00
19023;BME280;35226;48.606;8.858;2022-09-29T12:37:39;94874.31;;;14.49;100.00
19023;BME280;35226;48.606;8.858;2022-09-29T12:40:34;94875.56;;;14.42;100.00
19023;BME280;35226;48.606;8.858;2022-09-29T12:43:03;94880.38;;;14.58;100.00
19023;BME280;35226;48.606;8.858;2022-09-29T12:50:56;94878.09;;;14.46;100.00
19023;BME280;35226;48.606;8.858;2022-09-29T12:53:37;94880.09;;;14.45;99.24
19023;BME280;35226;48.606;8.858;2022-09-29T12:58:57;94879.59;;;14.47;99.55
19023;BME280;35226;48.606;8.858;2022-09-29T13:01:36;94872.78;;;14.53;98.75
19023;BME280;35226;48.606;8.858;2022-09-29T13:04:19;94878.84;;;14.52;99.39
19023;BME280;35226;48.606;8.858;2022-09-29T13:07:16;94885.44;;;14.49;100.00
19023;BME280;35226;48.606;8.858;2022-09-29T13:10:17;94887.94;;;14.52;95.61
19023;BME280;35226;48.606;8.858;2022-09-29T13:28:27;94884.44;;;14.57;88.40
19023;BME280;35226;48.606;8.858;2022-09-29T13:30:54;94872.81;;;14.64;94.52
19023;BME280;35226;48.606;8.858;2022-09-29T13:33:24;94875.31;;;14.46;87.59
19023;BME280;35226;48.606;8.858;2022-09-29T13:35:51;94875.81;;;14.55;88.51
19023;BME280;35226;48.606;8.858;2022-09-29T13:38:23;94881.13;;;14.48;83.46
19023;BME280;35226;48.606;8.858;2022-09-29T13:49:13;94889.97;;;14.63;99.93
19023;BME280;35226;48.606;8.858;2022-09-29T13:51:43;94891.50;;;14.69;86.86
19023;BME280;35226;48.606;8.858;2022-09-29T13:56:48;94896.31;;;14.74;87.87
19023;BME280;35226;48.606;8.858;2022-09-29T13:59:22;94888.72;;;14.64;81.07
19023;BME280;35226;48.606;8.858;2022-09-29T14:01:48;94899.56;;;14.62;78.22
19023;BME280;35226;48.606;8.858;2022-09-29T14:04:43;94898.31;;;14.63;83.16
19023;BME280;35226;48.606;8.858;2022-09-29T14:07:12;94908.66;;;14.46;74.00
19023;BME280;35226;48.606;8.858;2022-09-29T14:09:54;94901.34;;;14.65;82.14
19023;BME280;35226;48.606;8.858;2022-09-29T14:12:25;94912.47;;;14.65;83.83
19023;BME280;35226;48.606;8.858;2022-09-29T14:14:55;94906.66;;;14.57;78.17
19023;BME280;35226;48.606;8.858;2022-09-29T14:17:33;94903.63;;;14.72;81.80
19023;BME280;35226;48.606;8.858;2022-09-29T14:20:18;94905.91;;;14.68;85.70
19023;BME280;35226;48.606;8.858;2022-09-29T14:33:13;94911.97;;;14.66;86.77
19023;BME280;35226;48.606;8.858;2022-09-29T14:36:03;94920.06;;;14.64;88.28
19023;BME280;35226;48.606;8.858;2022-09-29T14:38:42;94925.88;;;14.66;85.31
19023;BME280;35226;48.606;8.858;2022-09-29T14:43:41;94924.88;;;14.75;91.78
19023;BME280;35226;48.606;8.858;2022-09-29T15:01:01;94934.47;;;14.79;84.33
19023;BME280;35226;48.606;8.858;2022-09-29T15:03:52;94939.00;;;14.71;89.54
19023;BME280;35226;48.606;8.858;2022-09-29T15:06:21;94938.50;;;14.73;83.49
19023;BME280;35226;48.606;8.858;2022-09-29T15:09:02;94928.41;;;14.81;89.49
19023;BME280;35226;48.606;8.858;2022-09-29T15:11:33;94938.00;;;14.74;85.69
19023;BME280;35226;48.606;8.858;2022-09-29T15:14:22;94929.69;;;14.69;79.81
19023;BME280;35226;48.606;8.858;2022-09-29T15:17:14;94934.72;;;14.70;80.39
19023;BME280;35226;48.606;8.858;2022-09-29T15:25:33;94934.97;;;14.72;90.92
19023;BME280;35226;48.606;8.858;2022-09-29T15:30:34;94942.28;;;14.64;87.50
19023;BME280;35226;48.606;8.858;2022-09-29T15:35:40;94938.00;;;14.58;88.35
19023;BME280;35226;48.606;8.858;2022-09-29T15:40:35;94951.88;;;14.58;88.13
19023;BME280;35226;48.606;8.858;2022-09-29T15:43:24;94952.88;;;14.60;89.94
19023;BME280;35226;48.606;8.858;2022-09-29T15:46:00;94946.34;;;14.58;91.46
19023;BME280;35226;48.606;8.858;2022-09-29T15:48:29;94952.34;;;14.51;90.80
19023;BME280;35226;48.606;8.858;2022-09-29T15:50:56;94962.50;;;14.65;89.40
19023;BME280;35226;48.606;8.858;2022-09-29T15:53:25;94956.91;;;14.59;85.56
19023;BME280;35226;48.606;8.858;2022-09-29T15:55:51;94960.72;;;14.56;87.96
19023;BME280;35226;48.606;8.858;2022-09-29T15:58:43;94964.53;;;14.59;86.24
19023;BME280;35226;48.606;8.858;2022-09-29T16:01:13;94965.53;;;14.56;95.07
19023;BME280;35226;48.606;8.858;2022-09-29T16:03:47;94964.53;;;14.64;91.28
19023;BME280;35226;48.606;8.858;2022-09-29T16:06:24;94966.28;;;14.56;89.91
19023;BME280;35226;48.606;8.858;2022-09-29T16:08:55;94976.91;;;14.58;89.11
19023;BME280;35226;48.606;8.858;2022-09-29T16:11:33;94977.91;;;14.55;91.20
19023;BME280;35226;48.606;8.858;2022-09-29T16:14:08;94971.81;;;14.51;91.06